sensor_id;sensor_type;location;lat;lon;timestamp;pressure;altitude;pressure_sealevel;temperature;humidity
2036;BME280;23642;42.658;23.350;2023-04-12T00:02:17;53316.81;;;-146.31;71.32
2036;BME280;23642;42.658;23.350;2023-04-12T00:04:44;53304.44;;;-146.31;71.44
2036;BME280;23642;42.658;23.350;2023-04-12T00:07:20;53304.44;;;-146.31;71.03
2036;BME280;23642;42.658;23.350;2023-04-12T00:09:47;53279.66;;;-146.31;71.29
2036;BME280;23642;42.658;23.350;2023-04-12T00:12:13;53304.44;;;-146.31;71.66
2036;BME280;23642;42.658;23.350;2023-04-12T00:14:42;53285.84;;;-146.31;71.20
2036;BME280;23642;42.658;23.350;2023-04-12T00:17:09;53289.97;;;-146.31;71.09
2036;BME280;23642;42.658;23.350;2023-04-12T00:19:37;53273.47;;;-146.31;71.18
2036;BME280;23642;42.658;23.350;2023-04-12T00:22:06;53283.78;;;-146.31;71.05
2036;BME280;23642;42.658;23.350;2023-04-12T00:24:33;53263.16;;;-146.31;71.63
2036;BME280;23642;42.658;23.350;2023-04-12T00:27:00;53292.03;;;-146.31;71.68
2036;BME280;23642;42.658;23.350;2023-04-12T00:29:27;53279.66;;;-146.31;71.56
2036;BME280;23642;42.658;23.350;2023-04-12T00:31:54;53269.34;;;-146.31;71.80
2036;BME280;23642;42.658;23.350;2023-04-12T00:34:27;53267.28;;;-146.31;71.80
2036;BME280;23642;42.658;23.350;2023-04-12T00:36:56;53275.53;;;-146.31;71.01
2036;BME280;23642;42.658;23.350;2023-04-12T00:39:23;53279.66;;;-146.31;70.88
2036;BME280;23642;42.658;23.350;2023-04-12T00:41:50;53283.78;;;-146.31;71.03
2036;BME280;23642;42.658;23.350;2023-04-12T00:44:17;53263.16;;;-146.31;70.82
2036;BME280;23642;42.658;23.350;2023-04-12T00:46:44;53263.16;;;-146.31;70.58
2036;BME280;23642;42.658;23.350;2023-04-12T00:49:12;53296.16;;;-146.31;70.81
2036;BME280;23642;42.658;23.350;2023-04-12T00:51:39;53259.03;;;-146.31;70.69
2036;BME280;23642;42.658;23.350;2023-04-12T00:54:08;53271.41;;;-146.31;70.88
2036;BME280;23642;42.658;23.350;2023-04-12T00:56:37;53275.53;;;-146.31;70.52
2036;BME280;23642;42.658;23.350;2023-04-12T00:59:08;53263.16;;;-146.31;70.77
2036;BME280;23642;42.658;23.350;2023-04-12T01:01:35;53263.16;;;-146.31;70.72
2036;BME280;23642;42.658;23.350;2023-04-12T01:04:05;53256.94;;;-146.31;70.70
2036;BME280;23642;42.658;23.350;2023-04-12T01:06:40;53279.66;;;-146.31;70.84
2036;BME280;23642;42.658;23.350;2023-04-12T01:09:22;53250.75;;;-146.31;70.83
2036;BME280;23642;42.658;23.350;2023-04-12T01:12:03;53240.44;;;-146.31;71.07
2036;BME280;23642;42.658;23.350;2023-04-12T01:14:42;53248.69;;;-146.31;70.90
2036;BME280;23642;42.658;23.350;2023-04-12T01:17:16;53236.31;;;-146.31;70.71
2036;BME280;23642;42.658;23.350;2023-04-12T01:19:55;53254.88;;;-146.31;70.84
2036;BME280;23642;42.658;23.350;2023-04-12T01:22:53;53234.25;;;-146.31;70.65
2036;BME280;23642;42.658;23.350;2023-04-12T01:25:39;53244.56;;;-146.31;70.94
2036;BME280;23642;42.658;23.350;2023-04-12T01:28:09;53236.31;;;-146.31;70.76
2036;BME280;23642;42.658;23.350;2023-04-12T01:30:40;53238.38;;;-146.31;70.85
2036;BME280;23642;42.658;23.350;2023-04-12T01:33:10;53240.44;;;-146.31;70.90
2036;BME280;23642;42.658;23.350;2023-04-12T01:35:38;53248.69;;;-146.31;71.07
2036;BME280;23642;42.658;23.350;2023-04-12T01:38:06;53236.31;;;-146.31;70.73
2036;BME280;23642;42.658;23.350;2023-04-12T01:40:34;53250.75;;;-146.31;70.87
2036;BME280;23642;42.658;23.350;2023-04-12T01:43:06;53246.63;;;-146.31;70.63
2036;BME280;23642;42.658;23.350;2023-04-12T01:45:37;53223.94;;;-146.31;70.40
2036;BME280;23642;42.658;23.350;2023-04-12T01:48:06;53215.66;;;-146.31;70.74
2036;BME280;23642;42.658;23.350;2023-04-12T01:50:40;53244.56;;;-146.31;70.67
2036;BME280;23642;42.658;23.350;2023-04-12T01:53:13;53236.31;;;-146.31;71.19
2036;BME280;23642;42.658;23.350;2023-04-12T01:55:43;53230.13;;;-146.31;71.77
2036;BME280;23642;42.658;23.350;2023-04-12T01:58:11;53219.81;;;-146.31;71.33
2036;BME280;23642;42.658;23.350;2023-04-12T02:00:40;53199.16;;;-146.31;71.70
2036;BME280;23642;42.658;23.350;2023-04-12T02:03:10;53188.84;;;-146.31;71.57
2036;BME280;23642;42.658;23.350;2023-04-12T02:05:38;53203.28;;;-146.31;71.97
2036;BME280;23642;42.658;23.350;2023-04-12T02:08:05;53195.03;;;-146.31;71.47
2036;BME280;23642;42.658;23.350;2023-04-12T02:10:32;53207.41;;;-146.31;71.48
2036;BME280;23642;42.658;23.350;2023-04-12T02:13:01;53226.00;;;-146.31;71.63
2036;BME280;23642;42.658;23.350;2023-04-12T02:15:28;53238.38;;;-146.31;71.96
2036;BME280;23642;42.658;23.350;2023-04-12T02:17:56;53195.03;;;-146.31;72.25
2036;BME280;23642;42.658;23.350;2023-04-12T02:20:24;53211.53;;;-146.31;72.37
2036;BME280;23642;42.658;23.350;2023-04-12T02:22:51;53217.72;;;-146.31;72.10
2036;BME280;23642;42.658;23.350;2023-04-12T02:25:18;53188.84;;;-146.31;71.73
2036;BME280;23642;42.658;23.350;2023-04-12T02:27:48;53217.72;;;-146.31;71.86
2036;BME280;23642;42.658;23.350;2023-04-12T02:30:15;53207.41;;;-146.31;72.06
2036;BME280;23642;42.658;23.350;2023-04-12T02:32:42;53207.41;;;-146.31;72.04
2036;BME280;23642;42.658;23.350;2023-04-12T02:35:14;53192.97;;;-146.31;72.43
2036;BME280;23642;42.658;23.350;2023-04-12T02:37:43;53199.16;;;-146.31;72.65
2036;BME280;23642;42.658;23.350;2023-04-12T02:40:11;53178.53;;;-146.31;72.12
2036;BME280;23642;42.658;23.350;2023-04-12T02:42:40;53159.94;;;-146.31;71.67
2036;BME280;23642;42.658;23.350;2023-04-12T02:45:08;53178.53;;;-146.31;72.50
2036;BME280;23642;42.658;23.350;2023-04-12T02:47:38;53174.38;;;-146.31;72.55
2036;BME280;23642;42.658;23.350;2023-04-12T02:50:06;53151.69;;;-146.31;72.55
2036;BME280;23642;42.658;23.350;2023-04-12T02:52:34;53176.44;;;-146.31;72.79
2036;BME280;23642;42.658;23.350;2023-04-12T02:55:01;53139.31;;;-146.31;71.98
2036;BME280;23642;42.658;23.350;2023-04-12T02:57:31;53153.75;;;-146.31;71.95
2036;BME280;23642;42.658;23.350;2023-04-12T02:59:57;53168.19;;;-146.31;71.69
2036;BME280;23642;42.658;23.350;2023-04-12T03:02:27;53157.88;;;-146.31;71.68
2036;BME280;23642;42.658;23.350;2023-04-12T03:04:54;53180.59;;;-146.31;71.90
2036;BME280;23642;42.658;23.350;2023-04-12T03:07:21;53155.81;;;-146.31;71.41
2036;BME280;23642;42.658;23.350;2023-04-12T03:09:50;53151.69;;;-146.31;71.40
2036;BME280;23642;42.658;23.350;2023-04-12T03:12:17;53153.75;;;-146.31;71.67
2036;BME280;23642;42.658;23.350;2023-04-12T03:14:44;53114.53;;;-146.31;71.45
2036;BME280;23642;42.658;23.350;2023-04-12T03:17:11;53118.66;;;-146.31;72.26
2036;BME280;23642;42.658;23.350;2023-04-12T03:19:38;53102.16;;;-146.31;72.42
2036;BME280;23642;42.658;23.350;2023-04-12T03:22:05;53098.03;;;-146.31;73.05
2036;BME280;23642;42.658;23.350;2023-04-12T03:24:32;53046.41;;;-146.31;73.48
2036;BME280;23642;42.658;23.350;2023-04-12T03:27:01;53031.97;;;-146.31;73.85
2036;BME280;23642;42.658;23.350;2023-04-12T03:29:30;53027.84;;;-146.31;74.12
2036;BME280;23642;42.658;23.350;2023-04-12T03:31:57;53013.41;;;-146.31;74.44
2036;BME280;23642;42.658;23.350;2023-04-12T03:34:27;52986.56;;;-146.31;74.88
2036;BME280;23642;42.658;23.350;2023-04-12T03:36:58;52978.31;;;-146.31;75.09
2036;BME280;23642;42.658;23.350;2023-04-12T03:39:25;52984.50;;;-146.31;75.05
2036;BME280;23642;42.658;23.350;2023-04-12T03:41:52;52957.66;;;-146.31;74.71
2036;BME280;23642;42.658;23.350;2023-04-12T03:44:23;52970.06;;;-146.31;74.28
2036;BME280;23642;42.658;23.350;2023-04-12T03:46:51;52963.88;;;-146.31;73.65
2036;BME280;23642;42.658;23.350;2023-04-12T03:49:20;52978.31;;;-146.31;73.58
2036;BME280;23642;42.658;23.350;2023-04-12T03:51:47;52968.00;;;-146.31;72.62
2036;BME280;23642;42.658;23.350;2023-04-12T03:54:15;52988.63;;;-146.31;71.93
2036;BME280;23642;42.658;23.350;2023-04-12T03:56:42;53005.16;;;-146.31;71.62
2036;BME280;23642;42.658;23.350;2023-04-12T03:59:09;53015.47;;;-146.31;71.83
2036;BME280;23642;42.658;23.350;2023-04-12T04:01:37;53011.34;;;-146.31;71.49
2036;BME280;23642;42.658;23.350;2023-04-12T04:04:04;53007.22;;;-146.31;71.29
2036;BME280;23642;42.658;23.350;2023-04-12T04:06:37;53011.34;;;-146.31;72.01
2036;BME280;23642;42.658;23.350;2023-04-12T04:09:04;53015.47;;;-146.31;71.29
2036;BME280;23642;42.658;23.350;2023-04-12T04:11:33;53027.84;;;-146.31;71.72
2036;BME280;23642;42.658;23.350;2023-04-12T04:14:00;53019.59;;;-146.31;71.48
2036;BME280;23642;42.658;23.350;2023-04-12T04:16:27;53036.09;;;-146.31;71.92
2036;BME280;23642;42.658;23.350;2023-04-12T04:18:56;53044.34;;;-146.31;71.47
2036;BME280;23642;42.658;23.350;2023-04-12T04:21:23;53048.47;;;-146.31;71.17
2036;BME280;23642;42.658;23.350;2023-04-12T04:23:51;53034.03;;;-146.31;71.73
2036;BME280;23642;42.658;23.350;2023-04-12T04:26:18;53044.34;;;-146.31;71.17
2036;BME280;23642;42.658;23.350;2023-04-12T04:28:54;53027.84;;;-146.31;71.30
2036;BME280;23642;42.658;23.350;2023-04-12T04:31:21;53025.78;;;-146.31;71.09
2036;BME280;23642;42.658;23.350;2023-04-12T04:33:50;53031.97;;;-146.31;71.53
2036;BME280;23642;42.658;23.350;2023-04-12T04:36:19;53031.97;;;-146.31;71.38
2036;BME280;23642;42.658;23.350;2023-04-12T04:38:46;53044.34;;;-146.31;71.05
2036;BME280;23642;42.658;23.350;2023-04-12T04:41:15;53025.78;;;-146.31;71.40
2036;BME280;23642;42.658;23.350;2023-04-12T04:43:47;53007.22;;;-146.31;71.06
2036;BME280;23642;42.658;23.350;2023-04-12T04:46:17;53036.09;;;-146.31;71.33
2036;BME280;23642;42.658;23.350;2023-04-12T04:48:47;53027.84;;;-146.31;71.00
2036;BME280;23642;42.658;23.350;2023-04-12T04:51:14;53050.56;;;-146.31;70.49
2036;BME280;23642;42.658;23.350;2023-04-12T04:53:43;53048.47;;;-146.31;70.40
2036;BME280;23642;42.658;23.350;2023-04-12T04:56:09;53060.88;;;-146.31;70.41
2036;BME280;23642;42.658;23.350;2023-04-12T04:58:36;53085.63;;;-146.31;70.03
2036;BME280;23642;42.658;23.350;2023-04-12T05:01:04;53067.06;;;-146.31;69.67
2036;BME280;23642;42.658;23.350;2023-04-12T05:03:31;53083.56;;;-146.31;69.52
2036;BME280;23642;42.658;23.350;2023-04-12T05:05:59;53108.34;;;-146.31;69.33
2036;BME280;23642;42.658;23.350;2023-04-12T05:08:27;53122.78;;;-146.31;68.23
2036;BME280;23642;42.658;23.350;2023-04-12T05:10:58;53122.78;;;-146.31;68.00
2036;BME280;23642;42.658;23.350;2023-04-12T05:13:25;53139.31;;;-146.31;67.65
2036;BME280;23642;42.658;23.350;2023-04-12T05:15:54;53147.56;;;-146.31;67.50
2036;BME280;23642;42.658;23.350;2023-04-12T05:18:21;53186.78;;;-146.31;67.59
2036;BME280;23642;42.658;23.350;2023-04-12T05:20:48;53195.03;;;-146.31;67.23
2036;BME280;23642;42.658;23.350;2023-04-12T05:23:15;53192.97;;;-146.31;66.90
2036;BME280;23642;42.658;23.350;2023-04-12T05:25:46;53252.81;;;-146.31;66.44
2036;BME280;23642;42.658;23.350;2023-04-12T05:28:15;53242.50;;;-146.31;65.81
2036;BME280;23642;42.658;23.350;2023-04-12T05:30:42;53269.34;;;-146.31;65.01
2036;BME280;23642;42.658;23.350;2023-04-12T05:33:09;53289.97;;;-146.31;64.93
2036;BME280;23642;42.658;23.350;2023-04-12T05:35:37;53279.66;;;-146.31;65.23
2036;BME280;23642;42.658;23.350;2023-04-12T05:38:04;53327.13;;;-146.31;64.43
2036;BME280;23642;42.658;23.350;2023-04-12T05:40:31;53333.31;;;-146.31;64.17
2036;BME280;23642;42.658;23.350;2023-04-12T05:42:58;53347.78;;;-146.31;63.95
2036;BME280;23642;42.658;23.350;2023-04-12T05:45:26;53358.09;;;-146.31;63.85
2036;BME280;23642;42.658;23.350;2023-04-12T05:47:55;53399.38;;;-146.31;63.06
2036;BME280;23642;42.658;23.350;2023-04-12T05:50:22;53424.16;;;-146.31;63.08
2036;BME280;23642;42.658;23.350;2023-04-12T05:52:49;53434.47;;;-146.31;62.54
2036;BME280;23642;42.658;23.350;2023-04-12T05:55:18;53465.44;;;-146.31;62.51
2036;BME280;23642;42.658;23.350;2023-04-12T05:57:46;53457.19;;;-146.31;62.65
2036;BME280;23642;42.658;23.350;2023-04-12T06:00:16;53455.13;;;-146.31;62.18
2036;BME280;23642;42.658;23.350;2023-04-12T06:02:45;53481.94;;;-146.31;61.81
2036;BME280;23642;42.658;23.350;2023-04-12T06:05:14;53514.97;;;-146.31;61.85
2036;BME280;23642;42.658;23.350;2023-04-12T06:07:42;53533.56;;;-146.31;62.23
2036;BME280;23642;42.658;23.350;2023-04-12T06:10:15;53506.72;;;-146.31;62.52
2036;BME280;23642;42.658;23.350;2023-04-12T06:12:42;53539.75;;;-146.31;61.99
2036;BME280;23642;42.658;23.350;2023-04-12T06:15:09;53533.56;;;-146.31;61.89
2036;BME280;23642;42.658;23.350;2023-04-12T06:17:37;53527.38;;;-146.31;62.30
2036;BME280;23642;42.658;23.350;2023-04-12T06:20:06;53514.97;;;-146.31;62.26
2036;BME280;23642;42.658;23.350;2023-04-12T06:22:33;53504.66;;;-146.31;62.23
2036;BME280;23642;42.658;23.350;2023-04-12T06:25:04;53498.47;;;-146.31;62.62
2036;BME280;23642;42.658;23.350;2023-04-12T06:27:31;53481.94;;;-146.31;63.53
2036;BME280;23642;42.658;23.350;2023-04-12T06:30:02;53494.34;;;-146.31;63.65
2036;BME280;23642;42.658;23.350;2023-04-12T06:32:29;53469.56;;;-146.31;63.58
2036;BME280;23642;42.658;23.350;2023-04-12T06:34:56;53461.31;;;-146.31;64.06
2036;BME280;23642;42.658;23.350;2023-04-12T06:37:26;53479.88;;;-146.31;63.87
2036;BME280;23642;42.658;23.350;2023-04-12T06:40:03;53494.34;;;-146.31;63.40
2036;BME280;23642;42.658;23.350;2023-04-12T06:42:49;53525.31;;;-146.31;62.85
2036;BME280;23642;42.658;23.350;2023-04-12T06:45:16;53512.91;;;-146.31;62.46
2036;BME280;23642;42.658;23.350;2023-04-12T06:47:50;53486.06;;;-146.31;62.50
2036;BME280;23642;42.658;23.350;2023-04-12T06:50:20;53539.75;;;-146.31;60.86
2036;BME280;23642;42.658;23.350;2023-04-12T06:52:48;53552.13;;;-146.31;61.02
2036;BME280;23642;42.658;23.350;2023-04-12T06:55:15;53556.25;;;-146.31;60.96
2036;BME280;23642;42.658;23.350;2023-04-12T06:57:42;53566.59;;;-146.31;60.76
2036;BME280;23642;42.658;23.350;2023-04-12T07:00:12;53566.59;;;-146.31;60.96
2036;BME280;23642;42.658;23.350;2023-04-12T07:02:39;53581.03;;;-146.31;60.20
2036;BME280;23642;42.658;23.350;2023-04-12T07:05:07;53564.53;;;-146.31;59.78
2036;BME280;23642;42.658;23.350;2023-04-12T07:07:34;53560.41;;;-146.31;60.25
2036;BME280;23642;42.658;23.350;2023-04-12T07:10:03;53552.13;;;-146.31;59.71
2036;BME280;23642;42.658;23.350;2023-04-12T07:12:30;53609.94;;;-146.31;59.65
2036;BME280;23642;42.658;23.350;2023-04-12T07:14:57;53562.47;;;-146.31;59.06
2036;BME280;23642;42.658;23.350;2023-04-12T07:17:30;53593.41;;;-146.31;58.68
2036;BME280;23642;42.658;23.350;2023-04-12T07:19:59;53622.31;;;-146.31;58.23
2036;BME280;23642;42.658;23.350;2023-04-12T07:22:26;53642.97;;;-146.31;57.00
2036;BME280;23642;42.658;23.350;2023-04-12T07:24:53;53556.25;;;-146.31;56.33
2036;BME280;23642;42.658;23.350;2023-04-12T07:27:24;53628.50;;;-146.31;56.34
2036;BME280;23642;42.658;23.350;2023-04-12T07:29:50;53581.03;;;-146.31;56.18
2036;BME280;23642;42.658;23.350;2023-04-12T07:32:22;53609.94;;;-146.31;56.48
2036;BME280;23642;42.658;23.350;2023-04-12T07:34:49;53626.44;;;-146.31;56.33
2036;BME280;23642;42.658;23.350;2023-04-12T07:37:17;53671.88;;;-146.31;56.44
2036;BME280;23642;42.658;23.350;2023-04-12T07:39:44;53709.03;;;-146.31;57.63
2036;BME280;23642;42.658;23.350;2023-04-12T07:42:11;53671.88;;;-146.31;57.88
2036;BME280;23642;42.658;23.350;2023-04-12T07:44:39;53723.47;;;-146.31;57.68
2036;BME280;23642;42.658;23.350;2023-04-12T07:47:06;53696.63;;;-146.31;57.76
2036;BME280;23642;42.658;23.350;2023-04-12T07:49:32;53690.44;;;-146.31;58.06
2036;BME280;23642;42.658;23.350;2023-04-12T07:51:59;53684.25;;;-146.31;57.33
2036;BME280;23642;42.658;23.350;2023-04-12T07:54:28;53750.31;;;-146.31;56.66
2036;BME280;23642;42.658;23.350;2023-04-12T07:56:59;53686.31;;;-146.31;54.81
2036;BME280;23642;42.658;23.350;2023-04-12T07:59:26;53735.88;;;-146.31;53.69
2036;BME280;23642;42.658;23.350;2023-04-12T08:01:56;53808.13;;;-146.31;52.79
2036;BME280;23642;42.658;23.350;2023-04-12T08:04:23;53905.16;;;-146.31;51.76
2036;BME280;23642;42.658;23.350;2023-04-12T08:06:50;53905.16;;;-146.31;50.47
2036;BME280;23642;42.658;23.350;2023-04-12T08:09:17;53944.38;;;-146.31;51.81
2036;BME280;23642;42.658;23.350;2023-04-12T08:11:44;53944.38;;;-146.31;51.44
2036;BME280;23642;42.658;23.350;2023-04-12T08:14:11;53898.94;;;-146.31;52.09
2036;BME280;23642;42.658;23.350;2023-04-12T08:16:39;53907.22;;;-146.31;53.11
2036;BME280;23642;42.658;23.350;2023-04-12T08:19:07;53969.16;;;-146.31;52.51
2036;BME280;23642;42.658;23.350;2023-04-12T08:21:34;54002.19;;;-146.31;51.76
2036;BME280;23642;42.658;23.350;2023-04-12T08:24:01;54070.31;;;-146.31;51.97
2036;BME280;23642;42.658;23.350;2023-04-12T08:26:28;54115.72;;;-146.31;52.16
2036;BME280;23642;42.658;23.350;2023-04-12T08:28:55;54206.56;;;-146.31;51.02
2036;BME280;23642;42.658;23.350;2023-04-12T08:31:23;54171.47;;;-146.31;50.69
2036;BME280;23642;42.658;23.350;2023-04-12T08:33:50;54206.56;;;-146.31;49.54
2036;BME280;23642;42.658;23.350;2023-04-12T08:36:18;54247.88;;;-146.31;48.94
2036;BME280;23642;42.658;23.350;2023-04-12T08:38:45;54179.75;;;-146.31;48.93
2036;BME280;23642;42.658;23.350;2023-04-12T08:41:17;54198.31;;;-146.31;49.04
2036;BME280;23642;42.658;23.350;2023-04-12T08:43:44;54181.81;;;-146.31;49.56
2036;BME280;23642;42.658;23.350;2023-04-12T08:46:13;54169.41;;;-146.31;49.29
2036;BME280;23642;42.658;23.350;2023-04-12T08:48:41;54198.31;;;-146.31;49.03
2036;BME280;23642;42.658;23.350;2023-04-12T08:51:12;54208.63;;;-146.31;47.27
2036;BME280;23642;42.658;23.350;2023-04-12T08:53:40;54204.50;;;-146.31;46.72
2036;BME280;23642;42.658;23.350;2023-04-12T08:56:09;54303.63;;;-146.31;47.20
2036;BME280;23642;42.658;23.350;2023-04-12T08:58:38;54266.44;;;-146.31;47.71
2036;BME280;23642;42.658;23.350;2023-04-12T09:01:09;54287.09;;;-146.31;47.04
2036;BME280;23642;42.658;23.350;2023-04-12T09:03:37;54274.72;;;-146.31;47.10
2036;BME280;23642;42.658;23.350;2023-04-12T09:06:05;54303.63;;;-146.31;47.54
2036;BME280;23642;42.658;23.350;2023-04-12T09:08:35;54274.72;;;-146.31;47.79
2036;BME280;23642;42.658;23.350;2023-04-12T09:11:20;54264.38;;;-146.31;47.66
2036;BME280;23642;42.658;23.350;2023-04-12T09:13:47;54297.44;;;-146.31;46.36
2036;BME280;23642;42.658;23.350;2023-04-12T09:16:14;54359.38;;;-146.31;46.41
2036;BME280;23642;42.658;23.350;2023-04-12T09:18:47;54373.81;;;-146.31;46.36
2036;BME280;23642;42.658;23.350;2023-04-12T09:21:14;54346.97;;;-146.31;46.23
2036;BME280;23642;42.658;23.350;2023-04-12T09:23:41;54390.34;;;-146.31;44.69
2036;BME280;23642;42.658;23.350;2023-04-12T09:26:26;54460.53;;;-146.31;44.39
2036;BME280;23642;42.658;23.350;2023-04-12T09:28:53;54458.47;;;-146.31;43.63
2036;BME280;23642;42.658;23.350;2023-04-12T09:31:20;54629.88;;;-146.31;43.17
2036;BME280;23642;42.658;23.350;2023-04-12T09:33:47;54629.88;;;-146.31;43.84
2036;BME280;23642;42.658;23.350;2023-04-12T09:36:14;54636.06;;;-146.31;44.35
2036;BME280;23642;42.658;23.350;2023-04-12T09:38:57;54623.66;;;-146.31;43.29
2036;BME280;23642;42.658;23.350;2023-04-12T09:41:26;54774.41;;;-146.31;42.12
2036;BME280;23642;42.658;23.350;2023-04-12T09:43:55;54819.84;;;-146.31;41.12
2036;BME280;23642;42.658;23.350;2023-04-12T09:46:21;54821.91;;;-146.31;40.56
2036;BME280;23642;42.658;23.350;2023-04-12T09:48:49;54869.41;;;-146.31;41.01
2036;BME280;23642;42.658;23.350;2023-04-12T09:51:23;54879.72;;;-146.31;40.84
2036;BME280;23642;42.658;23.350;2023-04-12T09:53:51;54881.78;;;-146.31;40.62
2036;BME280;23642;42.658;23.350;2023-04-12T09:56:20;54813.66;;;-146.31;40.67
2036;BME280;23642;42.658;23.350;2023-04-12T09:58:51;54823.97;;;-146.31;41.13
2036;BME280;23642;42.658;23.350;2023-04-12T10:01:18;54774.41;;;-146.31;41.74
2036;BME280;23642;42.658;23.350;2023-04-12T10:03:46;54759.97;;;-146.31;41.74
2036;BME280;23642;42.658;23.350;2023-04-12T10:06:15;54848.75;;;-146.31;40.11
2036;BME280;23642;42.658;23.350;2023-04-12T10:08:43;55005.72;;;-146.31;38.55
2036;BME280;23642;42.658;23.350;2023-04-12T10:11:12;55084.19;;;-146.31;37.74
2036;BME280;23642;42.658;23.350;2023-04-12T10:13:41;55179.19;;;-146.31;35.79
2036;BME280;23642;42.658;23.350;2023-04-12T10:16:10;55303.09;;;-146.31;34.80
2036;BME280;23642;42.658;23.350;2023-04-12T10:18:39;55327.88;;;-146.31;34.21
2036;BME280;23642;42.658;23.350;2023-04-12T10:21:07;55294.84;;;-146.31;34.17
2036;BME280;23642;42.658;23.350;2023-04-12T10:23:36;55336.16;;;-146.31;33.81
2036;BME280;23642;42.658;23.350;2023-04-12T10:26:04;55360.94;;;-146.31;34.27
2036;BME280;23642;42.658;23.350;2023-04-12T10:28:30;55365.06;;;-146.31;35.54
2036;BME280;23642;42.658;23.350;2023-04-12T10:30:57;55298.97;;;-146.31;34.74
2036;BME280;23642;42.658;23.350;2023-04-12T10:33:29;55352.66;;;-146.31;34.49
2036;BME280;23642;42.658;23.350;2023-04-12T10:35:59;55344.41;;;-146.31;35.53
2036;BME280;23642;42.658;23.350;2023-04-12T10:38:28;55365.06;;;-146.31;35.36
2036;BME280;23642;42.658;23.350;2023-04-12T10:41:11;55367.13;;;-146.31;35.35
2036;BME280;23642;42.658;23.350;2023-04-12T10:43:38;55369.19;;;-146.31;35.46
2036;BME280;23642;42.658;23.350;2023-04-12T10:46:08;55350.59;;;-146.31;34.27
2036;BME280;23642;42.658;23.350;2023-04-12T10:48:54;55410.50;;;-146.31;33.43
2036;BME280;23642;42.658;23.350;2023-04-12T10:51:23;55435.28;;;-146.31;33.46
2036;BME280;23642;42.658;23.350;2023-04-12T10:53:51;55462.13;;;-146.31;32.95
2036;BME280;23642;42.658;23.350;2023-04-12T10:56:37;55495.19;;;-146.31;32.12
2036;BME280;23642;42.658;23.350;2023-04-12T10:59:05;55526.16;;;-146.31;31.75
2036;BME280;23642;42.658;23.350;2023-04-12T11:01:32;55563.34;;;-146.31;31.97
2036;BME280;23642;42.658;23.350;2023-04-12T11:04:14;55519.97;;;-146.31;32.67
2036;BME280;23642;42.658;23.350;2023-04-12T11:06:46;55505.50;;;-146.31;32.41
2036;BME280;23642;42.658;23.350;2023-04-12T11:09:20;55567.47;;;-146.31;31.47
2036;BME280;23642;42.658;23.350;2023-04-12T11:11:48;55645.97;;;-146.31;29.93
2036;BME280;23642;42.658;23.350;2023-04-12T11:14:15;55598.47;;;-146.31;30.90
2036;BME280;23642;42.658;23.350;2023-04-12T11:17:22;55664.56;;;-146.31;30.92
2036;BME280;23642;42.658;23.350;2023-04-12T11:19:52;55660.44;;;-146.31;30.82
2036;BME280;23642;42.658;23.350;2023-04-12T11:22:22;55668.69;;;-146.31;31.63
2036;BME280;23642;42.658;23.350;2023-04-12T11:24:50;55662.50;;;-146.31;31.85
2036;BME280;23642;42.658;23.350;2023-04-12T11:27:19;55652.16;;;-146.31;31.58
2036;BME280;23642;42.658;23.350;2023-04-12T11:29:50;55633.56;;;-146.31;31.85
2036;BME280;23642;42.658;23.350;2023-04-12T11:32:19;55650.09;;;-146.31;31.27
2036;BME280;23642;42.658;23.350;2023-04-12T11:34:47;55650.09;;;-146.31;31.42
2036;BME280;23642;42.658;23.350;2023-04-12T11:37:17;55679.03;;;-146.31;31.39
2036;BME280;23642;42.658;23.350;2023-04-12T11:39:45;55672.81;;;-146.31;31.68
2036;BME280;23642;42.658;23.350;2023-04-12T11:42:13;55693.47;;;-146.31;31.22
2036;BME280;23642;42.658;23.350;2023-04-12T11:44:42;55724.47;;;-146.31;30.80
2036;BME280;23642;42.658;23.350;2023-04-12T11:47:16;55710.00;;;-146.31;30.63
2036;BME280;23642;42.658;23.350;2023-04-12T11:49:44;55774.03;;;-146.31;30.55
2036;BME280;23642;42.658;23.350;2023-04-12T11:52:12;55745.13;;;-146.31;30.94
2036;BME280;23642;42.658;23.350;2023-04-12T11:54:45;55730.66;;;-146.31;31.21
2036;BME280;23642;42.658;23.350;2023-04-12T11:57:14;55736.84;;;-146.31;31.14
2036;BME280;23642;42.658;23.350;2023-04-12T11:59:45;55720.34;;;-146.31;31.44
2036;BME280;23642;42.658;23.350;2023-04-12T12:02:13;55722.41;;;-146.31;31.29
2036;BME280;23642;42.658;23.350;2023-04-12T12:04:43;55676.97;;;-146.31;32.00
2036;BME280;23642;42.658;23.350;2023-04-12T12:07:11;55738.91;;;-146.31;31.89
2036;BME280;23642;42.658;23.350;2023-04-12T12:09:39;55738.91;;;-146.31;31.97
2036;BME280;23642;42.658;23.350;2023-04-12T12:12:08;55707.94;;;-146.31;32.30
2036;BME280;23642;42.658;23.350;2023-04-12T12:14:36;55689.34;;;-146.31;32.29
2036;BME280;23642;42.658;23.350;2023-04-12T12:17:08;55724.47;;;-146.31;32.60
2036;BME280;23642;42.658;23.350;2023-04-12T12:19:38;55679.03;;;-146.31;32.00
2036;BME280;23642;42.658;23.350;2023-04-12T12:22:17;55714.13;;;-146.31;32.05
2036;BME280;23642;42.658;23.350;2023-04-12T12:24:45;55743.06;;;-146.31;31.73
2036;BME280;23642;42.658;23.350;2023-04-12T12:27:16;55767.84;;;-146.31;32.14
2036;BME280;23642;42.658;23.350;2023-04-12T12:29:48;55745.13;;;-146.31;32.00
2036;BME280;23642;42.658;23.350;2023-04-12T12:32:16;55697.63;;;-146.31;32.42
2036;BME280;23642;42.658;23.350;2023-04-12T12:34:49;55679.03;;;-146.31;32.35
2036;BME280;23642;42.658;23.350;2023-04-12T12:37:19;55732.72;;;-146.31;31.19
2036;BME280;23642;42.658;23.350;2023-04-12T12:40:05;55753.38;;;-146.31;31.50
2036;BME280;23642;42.658;23.350;2023-04-12T12:42:47;55726.53;;;-146.31;31.63
2036;BME280;23642;42.658;23.350;2023-04-12T12:45:15;55707.94;;;-146.31;32.27
2036;BME280;23642;42.658;23.350;2023-04-12T12:47:47;55712.06;;;-146.31;32.04
2036;BME280;23642;42.658;23.350;2023-04-12T12:50:15;55786.44;;;-146.31;31.32
2036;BME280;23642;42.658;23.350;2023-04-12T12:52:43;55763.72;;;-146.31;31.07